sensor_id;sensor_type;location;lat;lon;timestamp;P1;durP1;ratioP1;P2;durP2;ratioP2
33987;SDS011;37428;53.580;-1.666;2024-02-16T00:01:46;7.75;;;7.05;;
33987;SDS011;37428;53.580;-1.666;2024-02-16T00:04:48;7.93;;;5.93;;
33987;SDS011;37428;53.580;-1.666;2024-02-16T00:07:55;6.80;;;5.85;;
33987;SDS011;37428;53.580;-1.666;2024-02-16T00:11:13;9.00;;;6.80;;
33987;SDS011;37428;53.580;-1.666;2024-02-16T00:14:15;8.57;;;7.25;;
33987;SDS011;37428;53.580;-1.666;2024-02-16T00:17:20;6.82;;;6.32;;
33987;SDS011;37428;53.580;-1.666;2024-02-16T00:20:26;6.45;;;5.75;;
33987;SDS011;37428;53.580;-1.666;2024-02-16T00:23:30;6.97;;;6.40;;
33987;SDS011;37428;53.580;-1.666;2024-02-16T00:26:39;6.32;;;5.50;;
33987;SDS011;37428;53.580;-1.666;2024-02-16T00:29:42;7.78;;;5.50;;
33987;SDS011;37428;53.580;-1.666;2024-02-16T00:32:50;6.22;;;5.63;;
33987;SDS011;37428;53.580;-1.666;2024-02-16T00:35:52;5.72;;;5.25;;
33987;SDS011;37428;53.580;-1.666;2024-02-16T00:39:11;4.70;;;4.13;;
33987;SDS011;37428;53.580;-1.666;2024-02-16T00:42:13;5.43;;;4.93;;
33987;SDS011;37428;53.580;-1.666;2024-02-16T00:45:16;7.00;;;5.97;;
33987;SDS011;37428;53.580;-1.666;2024-02-16T00:48:21;7.00;;;6.05;;
33987;SDS011;37428;53.580;-1.666;2024-02-16T00:51:31;7.30;;;6.57;;
33987;SDS011;37428;53.580;-1.666;2024-02-16T00:54:35;7.32;;;6.72;;
33987;SDS011;37428;53.580;-1.666;2024-02-16T00:57:37;10.00;;;7.07;;
33987;SDS011;37428;53.580;-1.666;2024-02-16T01:00:39;6.70;;;5.97;;
33987;SDS011;37428;53.580;-1.666;2024-02-16T01:03:44;6.45;;;5.45;;
33987;SDS011;37428;53.580;-1.666;2024-02-16T01:06:46;6.25;;;5.75;;
33987;SDS011;37428;53.580;-1.666;2024-02-16T01:09:49;8.73;;;7.75;;
33987;SDS011;37428;53.580;-1.666;2024-02-16T01:12:56;10.23;;;8.85;;
33987;SDS011;37428;53.580;-1.666;2024-02-16T01:16:12;8.07;;;7.32;;
33987;SDS011;37428;53.580;-1.666;2024-02-16T01:19:16;8.27;;;7.40;;
33987;SDS011;37428;53.580;-1.666;2024-02-16T01:22:25;8.20;;;7.40;;
33987;SDS011;37428;53.580;-1.666;2024-02-16T01:25:29;8.13;;;7.43;;
33987;SDS011;37428;53.580;-1.666;2024-02-16T01:28:37;13.55;;;10.75;;
33987;SDS011;37428;53.580;-1.666;2024-02-16T01:31:43;13.65;;;10.80;;
33987;SDS011;37428;53.580;-1.666;2024-02-16T01:34:46;10.35;;;9.50;;
33987;SDS011;37428;53.580;-1.666;2024-02-16T01:38:02;14.00;;;11.82;;
33987;SDS011;37428;53.580;-1.666;2024-02-16T01:41:12;10.27;;;9.27;;
33987;SDS011;37428;53.580;-1.666;2024-02-16T01:47:17;11.68;;;10.52;;
33987;SDS011;37428;53.580;-1.666;2024-02-16T01:50:22;11.52;;;10.43;;
33987;SDS011;37428;53.580;-1.666;2024-02-16T01:53:29;12.98;;;11.68;;
33987;SDS011;37428;53.580;-1.666;2024-02-16T01:56:34;14.23;;;11.88;;
33987;SDS011;37428;53.580;-1.666;2024-02-16T01:59:38;10.13;;;9.30;;
33987;SDS011;37428;53.580;-1.666;2024-02-16T02:02:43;12.13;;;10.98;;
33987;SDS011;37428;53.580;-1.666;2024-02-16T02:05:52;11.07;;;10.07;;
33987;SDS011;37428;53.580;-1.666;2024-02-16T02:08:58;10.65;;;9.65;;
33987;SDS011;37428;53.580;-1.666;2024-02-16T02:12:00;9.93;;;9.07;;
33987;SDS011;37428;53.580;-1.666;2024-02-16T02:15:02;10.73;;;9.82;;
33987;SDS011;37428;53.580;-1.666;2024-02-16T02:18:13;13.57;;;10.45;;
33987;SDS011;37428;53.580;-1.666;2024-02-16T02:21:19;15.48;;;10.68;;
33987;SDS011;37428;53.580;-1.666;2024-02-16T02:24:25;12.48;;;11.07;;
33987;SDS011;37428;53.580;-1.666;2024-02-16T02:27:35;12.07;;;10.88;;
33987;SDS011;37428;53.580;-1.666;2024-02-16T02:30:39;12.05;;;10.82;;
33987;SDS011;37428;53.580;-1.666;2024-02-16T02:33:46;11.45;;;10.38;;
33987;SDS011;37428;53.580;-1.666;2024-02-16T02:36:51;12.38;;;11.10;;
33987;SDS011;37428;53.580;-1.666;2024-02-16T02:39:55;12.88;;;11.50;;
33987;SDS011;37428;53.580;-1.666;2024-02-16T02:42:59;14.60;;;11.70;;
33987;SDS011;37428;53.580;-1.666;2024-02-16T02:46:01;14.73;;;13.23;;
33987;SDS011;37428;53.580;-1.666;2024-02-16T02:49:04;16.10;;;13.95;;
33987;SDS011;37428;53.580;-1.666;2024-02-16T02:52:07;18.38;;;14.02;;
33987;SDS011;37428;53.580;-1.666;2024-02-16T02:55:15;17.55;;;13.32;;
33987;SDS011;37428;53.580;-1.666;2024-02-16T02:58:17;17.50;;;14.52;;
33987;SDS011;37428;53.580;-1.666;2024-02-16T03:01:20;16.08;;;14.35;;
33987;SDS011;37428;53.580;-1.666;2024-02-16T03:04:22;16.65;;;14.85;;
33987;SDS011;37428;53.580;-1.666;2024-02-16T03:07:26;18.02;;;15.95;;
33987;SDS011;37428;53.580;-1.666;2024-02-16T03:10:30;15.60;;;13.82;;
33987;SDS011;37428;53.580;-1.666;2024-02-16T03:13:35;16.65;;;13.73;;
33987;SDS011;37428;53.580;-1.666;2024-02-16T03:19:43;18.23;;;13.73;;
33987;SDS011;37428;53.580;-1.666;2024-02-16T03:22:48;19.38;;;14.32;;
33987;SDS011;37428;53.580;-1.666;2024-02-16T03:25:58;21.35;;;15.10;;
33987;SDS011;37428;53.580;-1.666;2024-02-16T03:29:35;16.63;;;14.30;;
33987;SDS011;37428;53.580;-1.666;2024-02-16T03:32:53;22.67;;;15.48;;
33987;SDS011;37428;53.580;-1.666;2024-02-16T03:35:57;18.38;;;14.73;;
33987;SDS011;37428;53.580;-1.666;2024-02-16T03:39:00;23.88;;;16.38;;
33987;SDS011;37428;53.580;-1.666;2024-02-16T03:42:07;17.52;;;13.60;;
33987;SDS011;37428;53.580;-1.666;2024-02-16T03:45:11;16.55;;;13.25;;
33987;SDS011;37428;53.580;-1.666;2024-02-16T03:48:14;13.18;;;11.52;;
33987;SDS011;37428;53.580;-1.666;2024-02-16T03:51:16;12.82;;;11.43;;
33987;SDS011;37428;53.580;-1.666;2024-02-16T03:54:32;8.30;;;7.57;;
33987;SDS011;37428;53.580;-1.666;2024-02-16T03:57:39;9.52;;;8.55;;
33987;SDS011;37428;53.580;-1.666;2024-02-16T04:00:58;8.32;;;7.60;;
33987;SDS011;37428;53.580;-1.666;2024-02-16T04:04:16;11.40;;;10.18;;
33987;SDS011;37428;53.580;-1.666;2024-02-16T04:07:18;12.70;;;11.40;;
33987;SDS011;37428;53.580;-1.666;2024-02-16T04:10:20;17.38;;;11.57;;
33987;SDS011;37428;53.580;-1.666;2024-02-16T04:13:28;15.30;;;11.02;;
33987;SDS011;37428;53.580;-1.666;2024-02-16T04:16:32;23.25;;;12.82;;
33987;SDS011;37428;53.580;-1.666;2024-02-16T04:19:43;16.77;;;11.60;;
33987;SDS011;37428;53.580;-1.666;2024-02-16T04:25:51;13.75;;;9.18;;
33987;SDS011;37428;53.580;-1.666;2024-02-16T04:28:54;11.85;;;8.52;;
33987;SDS011;37428;53.580;-1.666;2024-02-16T04:31:58;12.13;;;7.28;;
33987;SDS011;37428;53.580;-1.666;2024-02-16T04:35:16;6.57;;;5.97;;
33987;SDS011;37428;53.580;-1.666;2024-02-16T04:38:24;9.65;;;6.47;;
33987;SDS011;37428;53.580;-1.666;2024-02-16T04:41:32;5.70;;;5.20;;
33987;SDS011;37428;53.580;-1.666;2024-02-16T04:44:42;4.72;;;3.63;;
33987;SDS011;37428;53.580;-1.666;2024-02-16T04:47:46;3.10;;;2.80;;
33987;SDS011;37428;53.580;-1.666;2024-02-16T04:50:51;2.40;;;2.20;;
33987;SDS011;37428;53.580;-1.666;2024-02-16T04:53:53;3.78;;;1.75;;
33987;SDS011;37428;53.580;-1.666;2024-02-16T04:57:01;1.52;;;1.38;;
33987;SDS011;37428;53.580;-1.666;2024-02-16T05:00:05;1.33;;;1.23;;
33987;SDS011;37428;53.580;-1.666;2024-02-16T05:03:15;2.92;;;1.33;;
33987;SDS011;37428;53.580;-1.666;2024-02-16T05:06:43;1.83;;;0.80;;
33987;SDS011;37428;53.580;-1.666;2024-02-16T05:09:48;1.30;;;1.17;;
33987;SDS011;37428;53.580;-1.666;2024-02-16T05:13:00;1.67;;;1.08;;
33987;SDS011;37428;53.580;-1.666;2024-02-16T05:16:09;1.25;;;0.60;;
33987;SDS011;37428;53.580;-1.666;2024-02-16T05:19:13;3.00;;;0.60;;
33987;SDS011;37428;53.580;-1.666;2024-02-16T05:22:15;2.38;;;1.20;;
33987;SDS011;37428;53.580;-1.666;2024-02-16T05:25:32;1.27;;;0.60;;
33987;SDS011;37428;53.580;-1.666;2024-02-16T05:28:34;2.25;;;0.57;;
33987;SDS011;37428;53.580;-1.666;2024-02-16T05:31:40;2.10;;;1.10;;
33987;SDS011;37428;53.580;-1.666;2024-02-16T05:34:42;3.78;;;1.00;;
33987;SDS011;37428;53.580;-1.666;2024-02-16T05:37:45;1.10;;;0.88;;
33987;SDS011;37428;53.580;-1.666;2024-02-16T05:40:55;3.38;;;1.23;;
33987;SDS011;37428;53.580;-1.666;2024-02-16T05:43:59;2.00;;;1.10;;
33987;SDS011;37428;53.580;-1.666;2024-02-16T05:47:12;2.88;;;1.10;;
33987;SDS011;37428;53.580;-1.666;2024-02-16T05:50:23;7.75;;;1.50;;
33987;SDS011;37428;53.580;-1.666;2024-02-16T05:53:33;7.38;;;1.65;;
33987;SDS011;37428;53.580;-1.666;2024-02-16T05:56:35;5.70;;;1.50;;
33987;SDS011;37428;53.580;-1.666;2024-02-16T05:59:41;3.45;;;1.60;;
33987;SDS011;37428;53.580;-1.666;2024-02-16T06:02:47;5.85;;;1.55;;
33987;SDS011;37428;53.580;-1.666;2024-02-16T06:05:49;4.00;;;1.42;;
33987;SDS011;37428;53.580;-1.666;2024-02-16T06:08:57;2.90;;;1.27;;
33987;SDS011;37428;53.580;-1.666;2024-02-16T06:12:02;3.58;;;1.65;;
33987;SDS011;37428;53.580;-1.666;2024-02-16T06:15:05;6.15;;;1.52;;
33987;SDS011;37428;53.580;-1.666;2024-02-16T06:18:30;7.35;;;1.42;;
33987;SDS011;37428;53.580;-1.666;2024-02-16T06:21:42;3.53;;;1.45;;
33987;SDS011;37428;53.580;-1.666;2024-02-16T06:24:59;5.85;;;2.65;;
33987;SDS011;37428;53.580;-1.666;2024-02-16T06:28:03;3.45;;;1.50;;
33987;SDS011;37428;53.580;-1.666;2024-02-16T06:31:06;6.20;;;2.15;;
33987;SDS011;37428;53.580;-1.666;2024-02-16T06:34:10;4.60;;;1.67;;
33987;SDS011;37428;53.580;-1.666;2024-02-16T06:37:18;6.38;;;2.28;;
33987;SDS011;37428;53.580;-1.666;2024-02-16T06:40:21;4.05;;;1.70;;
33987;SDS011;37428;53.580;-1.666;2024-02-16T06:43:29;5.32;;;2.20;;
33987;SDS011;37428;53.580;-1.666;2024-02-16T06:46:36;5.55;;;2.13;;
33987;SDS011;37428;53.580;-1.666;2024-02-16T06:49:39;6.45;;;2.40;;
33987;SDS011;37428;53.580;-1.666;2024-02-16T06:52:43;6.47;;;2.40;;
33987;SDS011;37428;53.580;-1.666;2024-02-16T06:56:00;7.57;;;2.15;;
33987;SDS011;37428;53.580;-1.666;2024-02-16T06:59:04;8.80;;;2.00;;
33987;SDS011;37428;53.580;-1.666;2024-02-16T07:02:06;7.22;;;2.15;;
33987;SDS011;37428;53.580;-1.666;2024-02-16T07:05:13;11.40;;;3.20;;
33987;SDS011;37428;53.580;-1.666;2024-02-16T07:08:15;11.45;;;2.42;;
33987;SDS011;37428;53.580;-1.666;2024-02-16T07:11:19;8.63;;;2.00;;
33987;SDS011;37428;53.580;-1.666;2024-02-16T07:14:27;7.63;;;1.92;;
33987;SDS011;37428;53.580;-1.666;2024-02-16T07:17:30;9.15;;;2.55;;
33987;SDS011;37428;53.580;-1.666;2024-02-16T07:20:43;4.60;;;1.80;;
33987;SDS011;37428;53.580;-1.666;2024-02-16T07:23:47;6.38;;;2.13;;
33987;SDS011;37428;53.580;-1.666;2024-02-16T07:26:52;7.85;;;1.92;;
33987;SDS011;37428;53.580;-1.666;2024-02-16T07:29:55;8.35;;;1.73;;
33987;SDS011;37428;53.580;-1.666;2024-02-16T07:32:59;9.85;;;2.40;;
33987;SDS011;37428;53.580;-1.666;2024-02-16T07:36:02;7.90;;;1.70;;
33987;SDS011;37428;53.580;-1.666;2024-02-16T07:42:46;8.17;;;2.30;;
33987;SDS011;37428;53.580;-1.666;2024-02-16T07:45:41;17.48;;;2.88;;
33987;SDS011;37428;53.580;-1.666;2024-02-16T07:49:07;8.98;;;2.80;;
33987;SDS011;37428;53.580;-1.666;2024-02-16T07:52:16;8.40;;;2.70;;
33987;SDS011;37428;53.580;-1.666;2024-02-16T07:55:21;7.60;;;2.30;;
33987;SDS011;37428;53.580;-1.666;2024-02-16T07:58:31;13.90;;;2.58;;
33987;SDS011;37428;53.580;-1.666;2024-02-16T08:01:39;8.50;;;2.50;;
33987;SDS011;37428;53.580;-1.666;2024-02-16T08:04:57;8.25;;;2.60;;
33987;SDS011;37428;53.580;-1.666;2024-02-16T08:08:05;10.60;;;3.13;;
33987;SDS011;37428;53.580;-1.666;2024-02-16T08:11:07;9.48;;;2.30;;
33987;SDS011;37428;53.580;-1.666;2024-02-16T08:14:21;7.75;;;2.30;;
33987;SDS011;37428;53.580;-1.666;2024-02-16T08:17:31;7.95;;;2.80;;
33987;SDS011;37428;53.580;-1.666;2024-02-16T08:20:35;8.38;;;3.25;;
33987;SDS011;37428;53.580;-1.666;2024-02-16T08:23:56;15.15;;;3.30;;
33987;SDS011;37428;53.580;-1.666;2024-02-16T08:27:10;12.60;;;2.75;;
33987;SDS011;37428;53.580;-1.666;2024-02-16T08:30:13;11.23;;;2.60;;
33987;SDS011;37428;53.580;-1.666;2024-02-16T08:33:16;12.23;;;3.55;;
33987;SDS011;37428;53.580;-1.666;2024-02-16T08:36:22;15.80;;;4.10;;
33987;SDS011;37428;53.580;-1.666;2024-02-16T08:39:30;13.27;;;3.70;;
33987;SDS011;37428;53.580;-1.666;2024-02-16T08:42:34;13.38;;;3.22;;
33987;SDS011;37428;53.580;-1.666;2024-02-16T08:45:43;18.60;;;4.00;;
33987;SDS011;37428;53.580;-1.666;2024-02-16T08:48:48;6.97;;;2.55;;
33987;SDS011;37428;53.580;-1.666;2024-02-16T08:51:52;13.75;;;4.97;;
33987;SDS011;37428;53.580;-1.666;2024-02-16T08:54:56;15.35;;;3.42;;
33987;SDS011;37428;53.580;-1.666;2024-02-16T08:57:59;10.63;;;3.28;;
33987;SDS011;37428;53.580;-1.666;2024-02-16T09:01:05;10.15;;;3.45;;
33987;SDS011;37428;53.580;-1.666;2024-02-16T09:04:09;13.15;;;3.70;;
33987;SDS011;37428;53.580;-1.666;2024-02-16T09:07:13;10.90;;;4.57;;
33987;SDS011;37428;53.580;-1.666;2024-02-16T09:10:18;12.73;;;4.20;;
33987;SDS011;37428;53.580;-1.666;2024-02-16T09:13:27;11.77;;;3.80;;
33987;SDS011;37428;53.580;-1.666;2024-02-16T09:16:33;11.48;;;3.65;;
33987;SDS011;37428;53.580;-1.666;2024-02-16T09:19:38;5.70;;;3.10;;
33987;SDS011;37428;53.580;-1.666;2024-02-16T09:22:44;6.65;;;3.13;;
33987;SDS011;37428;53.580;-1.666;2024-02-16T09:26:02;7.97;;;3.38;;
33987;SDS011;37428;53.580;-1.666;2024-02-16T09:29:07;8.38;;;3.55;;
33987;SDS011;37428;53.580;-1.666;2024-02-16T09:32:10;8.45;;;3.50;;
33987;SDS011;37428;53.580;-1.666;2024-02-16T09:35:26;9.45;;;3.70;;
33987;SDS011;37428;53.580;-1.666;2024-02-16T09:38:30;8.57;;;3.90;;
33987;SDS011;37428;53.580;-1.666;2024-02-16T09:41:50;9.30;;;3.38;;
33987;SDS011;37428;53.580;-1.666;2024-02-16T09:44:54;9.07;;;3.20;;
33987;SDS011;37428;53.580;-1.666;2024-02-16T09:48:03;7.18;;;3.38;;
33987;SDS011;37428;53.580;-1.666;2024-02-16T09:51:22;7.53;;;3.65;;
33987;SDS011;37428;53.580;-1.666;2024-02-16T09:54:42;3.53;;;3.13;;
33987;SDS011;37428;53.580;-1.666;2024-02-16T09:58:00;4.72;;;4.32;;
33987;SDS011;37428;53.580;-1.666;2024-02-16T10:01:05;8.23;;;4.63;;
33987;SDS011;37428;53.580;-1.666;2024-02-16T10:04:36;7.82;;;5.72;;
33987;SDS011;37428;53.580;-1.666;2024-02-16T10:07:44;5.97;;;5.50;;
33987;SDS011;37428;53.580;-1.666;2024-02-16T10:10:51;6.03;;;5.40;;
33987;SDS011;37428;53.580;-1.666;2024-02-16T10:14:04;7.45;;;4.63;;
33987;SDS011;37428;53.580;-1.666;2024-02-16T10:17:08;9.75;;;4.35;;
33987;SDS011;37428;53.580;-1.666;2024-02-16T10:20:10;5.65;;;3.00;;
33987;SDS011;37428;53.580;-1.666;2024-02-16T10:23:19;6.35;;;2.47;;
33987;SDS011;37428;53.580;-1.666;2024-02-16T10:26:25;7.28;;;2.47;;
33987;SDS011;37428;53.580;-1.666;2024-02-16T10:29:29;2.72;;;1.55;;
33987;SDS011;37428;53.580;-1.666;2024-02-16T10:32:34;4.40;;;1.48;;
33987;SDS011;37428;53.580;-1.666;2024-02-16T10:35:39;3.90;;;1.67;;
33987;SDS011;37428;53.580;-1.666;2024-02-16T10:38:43;4.78;;;1.08;;
33987;SDS011;37428;53.580;-1.666;2024-02-16T10:41:47;5.90;;;2.10;;
33987;SDS011;37428;53.580;-1.666;2024-02-16T10:44:52;2.78;;;1.42;;
33987;SDS011;37428;53.580;-1.666;2024-02-16T10:48:11;3.13;;;1.70;;
33987;SDS011;37428;53.580;-1.666;2024-02-16T10:51:16;4.90;;;1.90;;
33987;SDS011;37428;53.580;-1.666;2024-02-16T10:54:22;2.90;;;2.70;;
33987;SDS011;37428;53.580;-1.666;2024-02-16T10:57:29;4.68;;;3.03;;
33987;SDS011;37428;53.580;-1.666;2024-02-16T11:00:33;4.90;;;3.95;;
33987;SDS011;37428;53.580;-1.666;2024-02-16T11:03:37;6.80;;;4.65;;
33987;SDS011;37428;53.580;-1.666;2024-02-16T11:06:48;6.28;;;5.22;;
33987;SDS011;37428;53.580;-1.666;2024-02-16T11:09:53;4.03;;;3.45;;
33987;SDS011;37428;53.580;-1.666;2024-02-16T11:13:01;3.35;;;2.95;;
33987;SDS011;37428;53.580;-1.666;2024-02-16T11:16:08;5.18;;;2.10;;
33987;SDS011;37428;53.580;-1.666;2024-02-16T11:19:15;2.63;;;1.60;;
33987;SDS011;37428;53.580;-1.666;2024-02-16T11:22:19;3.95;;;1.55;;
33987;SDS011;37428;53.580;-1.666;2024-02-16T11:25:30;2.08;;;1.65;;
33987;SDS011;37428;53.580;-1.666;2024-02-16T11:28:33;1.98;;;1.52;;
33987;SDS011;37428;53.580;-1.666;2024-02-16T11:31:37;3.50;;;1.90;;
33987;SDS011;37428;53.580;-1.666;2024-02-16T11:34:41;2.53;;;1.92;;
33987;SDS011;37428;53.580;-1.666;2024-02-16T11:37:43;3.03;;;1.70;;
33987;SDS011;37428;53.580;-1.666;2024-02-16T11:40:56;1.85;;;1.70;;
33987;SDS011;37428;53.580;-1.666;2024-02-16T11:44:01;2.42;;;1.40;;
33987;SDS011;37428;53.580;-1.666;2024-02-16T11:47:18;1.52;;;1.42;;
33987;SDS011;37428;53.580;-1.666;2024-02-16T11:50:27;2.88;;;1.70;;
33987;SDS011;37428;53.580;-1.666;2024-02-16T11:53:37;1.15;;;1.05;;
33987;SDS011;37428;53.580;-1.666;2024-02-16T11:56:44;0.63;;;0.63;;
33987;SDS011;37428;53.580;-1.666;2024-02-16T11:59:52;0.73;;;0.45;;
33987;SDS011;37428;53.580;-1.666;2024-02-16T12:06:02;0.40;;;0.40;;
33987;SDS011;37428;53.580;-1.666;2024-02-16T12:09:07;0.20;;;0.10;;
33987;SDS011;37428;53.580;-1.666;2024-02-16T12:12:11;0.17;;;0.17;;
33987;SDS011;37428;53.580;-1.666;2024-02-16T12:15:14;0.60;;;0.20;;
33987;SDS011;37428;53.580;-1.666;2024-02-16T12:18:24;0.20;;;0.20;;
33987;SDS011;37428;53.580;-1.666;2024-02-16T12:21:30;0.25;;;0.20;;
33987;SDS011;37428;53.580;-1.666;2024-02-16T12:24:32;1.08;;;0.20;;
33987;SDS011;37428;53.580;-1.666;2024-02-16T12:27:34;0.38;;;0.10;;
33987;SDS011;37428;53.580;-1.666;2024-02-16T12:30:36;0.10;;;0.10;;
33987;SDS011;37428;53.580;-1.666;2024-02-16T12:33:42;0.32;;;0.10;;
33987;SDS011;37428;53.580;-1.666;2024-02-16T12:36:46;0.25;;;0.20;;
33987;SDS011;37428;53.580;-1.666;2024-02-16T12:39:48;0.10;;;0.10;;
33987;SDS011;37428;53.580;-1.666;2024-02-16T12:42:56;0.00;;;0.00;;
33987;SDS011;37428;53.580;-1.666;2024-02-16T12:45:59;0.15;;;0.08;;
33987;SDS011;37428;53.580;-1.666;2024-02-16T12:49:05;0.00;;;0.00;;
33987;SDS011;37428;53.580;-1.666;2024-02-16T12:52:09;0.00;;;0.00;;
33987;SDS011;37428;53.580;-1.666;2024-02-16T12:55:12;0.00;;;0.00;;
33987;SDS011;37428;53.580;-1.666;2024-02-16T12:58:37;0.00;;;0.00;;
33987;SDS011;37428;53.580;-1.666;2024-02-16T13:01:45;0.10;;;0.00;;
33987;SDS011;37428;53.580;-1.666;2024-02-16T13:04:48;0.10;;;0.10;;
33987;SDS011;37428;53.580;-1.666;2024-02-16T13:07:52;0.05;;;0.00;;
33987;SDS011;37428;53.580;-1.666;2024-02-16T13:10:55;0.00;;;0.00;;
33987;SDS011;37428;53.580;-1.666;2024-02-16T13:13:57;1.70;;;0.10;;
33987;SDS011;37428;53.580;-1.666;2024-02-16T13:16:59;0.22;;;0.10;;
33987;SDS011;37428;53.580;-1.666;2024-02-16T13:20:05;0.10;;;0.00;;
33987;SDS011;37428;53.580;-1.666;2024-02-16T13:23:11;0.10;;;0.10;;
33987;SDS011;37428;53.580;-1.666;2024-02-16T13:26:13;0.00;;;0.00;;
33987;SDS011;37428;53.580;-1.666;2024-02-16T13:29:29;0.43;;;0.35;;
33987;SDS011;37428;53.580;-1.666;2024-02-16T13:32:35;0.03;;;0.03;;
33987;SDS011;37428;53.580;-1.666;2024-02-16T13:35:41;0.30;;;0.17;;
33987;SDS011;37428;53.580;-1.666;2024-02-16T13:38:43;0.55;;;0.10;;
33987;SDS011;37428;53.580;-1.666;2024-02-16T13:41:52;0.10;;;0.10;;
33987;SDS011;37428;53.580;-1.666;2024-02-16T13:44:57;0.10;;;0.10;;
33987;SDS011;37428;53.580;-1.666;2024-02-16T13:47:59;0.45;;;0.20;;
33987;SDS011;37428;53.580;-1.666;2024-02-16T13:51:11;0.10;;;0.10;;
33987;SDS011;37428;53.580;-1.666;2024-02-16T13:54:15;0.28;;;0.13;;
33987;SDS011;37428;53.580;-1.666;2024-02-16T13:57:24;0.10;;;0.10;;
33987;SDS011;37428;53.580;-1.666;2024-02-16T14:00:28;0.60;;;0.20;;
33987;SDS011;37428;53.580;-1.666;2024-02-16T14:03:30;0.22;;;0.10;;
33987;SDS011;37428;53.580;-1.666;2024-02-16T14:06:35;0.10;;;0.10;;
33987;SDS011;37428;53.580;-1.666;2024-02-16T14:09:39;0.43;;;0.30;;
33987;SDS011;37428;53.580;-1.666;2024-02-16T14:12:41;0.85;;;0.15;;
33987;SDS011;37428;53.580;-1.666;2024-02-16T14:15:47;0.80;;;0.32;;
33987;SDS011;37428;53.580;-1.666;2024-02-16T14:18:50;1.10;;;0.13;;
33987;SDS011;37428;53.580;-1.666;2024-02-16T14:21:53;0.30;;;0.30;;
33987;SDS011;37428;53.580;-1.666;2024-02-16T14:24:58;0.50;;;0.20;;
33987;SDS011;37428;53.580;-1.666;2024-02-16T14:28:06;0.45;;;0.10;;
33987;SDS011;37428;53.580;-1.666;2024-02-16T14:31:10;0.32;;;0.20;;
33987;SDS011;37428;53.580;-1.666;2024-02-16T14:34:14;0.68;;;0.17;;
33987;SDS011;37428;53.580;-1.666;2024-02-16T14:40:36;0.10;;;0.10;;
33987;SDS011;37428;53.580;-1.666;2024-02-16T14:46:42;0.30;;;0.30;;
33987;SDS011;37428;53.580;-1.666;2024-02-16T14:49:44;0.55;;;0.20;;
33987;SDS011;37428;53.580;-1.666;2024-02-16T14:52:48;0.30;;;0.30;;
33987;SDS011;37428;53.580;-1.666;2024-02-16T14:55:50;0.85;;;0.45;;
33987;SDS011;37428;53.580;-1.666;2024-02-16T14:58:53;0.75;;;0.22;;
33987;SDS011;37428;53.580;-1.666;2024-02-16T15:01:56;0.70;;;0.20;;
33987;SDS011;37428;53.580;-1.666;2024-02-16T15:05:01;0.90;;;0.50;;
33987;SDS011;37428;53.580;-1.666;2024-02-16T15:08:08;5.35;;;0.98;;
33987;SDS011;37428;53.580;-1.666;2024-02-16T15:11:15;2.60;;;0.50;;
33987;SDS011;37428;53.580;-1.666;2024-02-16T15:14:31;1.17;;;0.40;;
33987;SDS011;37428;53.580;-1.666;2024-02-16T15:17:35;0.40;;;0.40;;
33987;SDS011;37428;53.580;-1.666;2024-02-16T15:20:41;1.05;;;0.40;;
33987;SDS011;37428;53.580;-1.666;2024-02-16T15:27:12;0.80;;;0.47;;
33987;SDS011;37428;53.580;-1.666;2024-02-16T15:30:14;1.33;;;0.70;;
33987;SDS011;37428;53.580;-1.666;2024-02-16T15:33:17;5.25;;;1.10;;
33987;SDS011;37428;53.580;-1.666;2024-02-16T15:36:28;0.40;;;0.40;;
33987;SDS011;37428;53.580;-1.666;2024-02-16T15:39:32;0.50;;;0.50;;
33987;SDS011;37428;53.580;-1.666;2024-02-16T15:42:34;11.13;;;1.27;;
33987;SDS011;37428;53.580;-1.666;2024-02-16T15:45:36;12.80;;;1.02;;
33987;SDS011;37428;53.580;-1.666;2024-02-16T15:48:40;0.45;;;0.40;;
33987;SDS011;37428;53.580;-1.666;2024-02-16T15:51:44;0.60;;;0.40;;
33987;SDS011;37428;53.580;-1.666;2024-02-16T15:54:52;1.25;;;0.63;;
33987;SDS011;37428;53.580;-1.666;2024-02-16T15:58:06;1.20;;;0.63;;
33987;SDS011;37428;53.580;-1.666;2024-02-16T16:01:08;1.00;;;0.45;;
33987;SDS011;37428;53.580;-1.666;2024-02-16T16:04:11;0.77;;;0.30;;
33987;SDS011;37428;53.580;-1.666;2024-02-16T16:07:13;2.65;;;0.50;;
33987;SDS011;37428;53.580;-1.666;2024-02-16T16:10:20;3.10;;;0.52;;
33987;SDS011;37428;53.580;-1.666;2024-02-16T16:13:22;1.30;;;0.45;;
33987;SDS011;37428;53.580;-1.666;2024-02-16T16:16:38;2.15;;;0.40;;
33987;SDS011;37428;53.580;-1.666;2024-02-16T16:19:40;0.43;;;0.25;;
33987;SDS011;37428;53.580;-1.666;2024-02-16T16:22:45;0.75;;;0.57;;
33987;SDS011;37428;53.580;-1.666;2024-02-16T16:25:52;1.17;;;0.47;;
33987;SDS011;37428;53.580;-1.666;2024-02-16T16:28:57;1.75;;;0.40;;
33987;SDS011;37428;53.580;-1.666;2024-02-16T16:32:05;16.25;;;2.15;;
33987;SDS011;37428;53.580;-1.666;2024-02-16T16:35:07;1.65;;;0.57;;
33987;SDS011;37428;53.580;-1.666;2024-02-16T16:38:19;2.33;;;0.52;;
33987;SDS011;37428;53.580;-1.666;2024-02-16T16:41:22;1.15;;;0.50;;
33987;SDS011;37428;53.580;-1.666;2024-02-16T16:44:25;1.70;;;0.50;;
33987;SDS011;37428;53.580;-1.666;2024-02-16T16:47:29;1.65;;;0.50;;
33987;SDS011;37428;53.580;-1.666;2024-02-16T16:50:38;2.05;;;0.40;;
33987;SDS011;37428;53.580;-1.666;2024-02-16T16:53:48;0.73;;;0.43;;
33987;SDS011;37428;53.580;-1.666;2024-02-16T16:56:53;2.25;;;0.70;;
33987;SDS011;37428;53.580;-1.666;2024-02-16T17:00:19;1.35;;;0.63;;
33987;SDS011;37428;53.580;-1.666;2024-02-16T17:03:21;0.98;;;0.65;;
33987;SDS011;37428;53.580;-1.666;2024-02-16T17:06:25;2.35;;;0.50;;
33987;SDS011;37428;53.580;-1.666;2024-02-16T17:09:29;0.90;;;0.70;;
33987;SDS011;37428;53.580;-1.666;2024-02-16T17:12:38;1.60;;;0.55;;
33987;SDS011;37428;53.580;-1.666;2024-02-16T17:15:46;0.80;;;0.30;;
33987;SDS011;37428;53.580;-1.666;2024-02-16T17:18:50;0.77;;;0.60;;
33987;SDS011;37428;53.580;-1.666;2024-02-16T17:22:06;1.27;;;0.50;;
33987;SDS011;37428;53.580;-1.666;2024-02-16T17:25:23;0.65;;;0.50;;
33987;SDS011;37428;53.580;-1.666;2024-02-16T17:28:31;4.43;;;1.88;;
33987;SDS011;37428;53.580;-1.666;2024-02-16T17:31:43;2.25;;;0.70;;
33987;SDS011;37428;53.580;-1.666;2024-02-16T17:34:45;2.25;;;0.50;;
33987;SDS011;37428;53.580;-1.666;2024-02-16T17:37:47;1.77;;;0.70;;
33987;SDS011;37428;53.580;-1.666;2024-02-16T17:40:55;1.60;;;0.65;;
33987;SDS011;37428;53.580;-1.666;2024-02-16T17:44:09;0.93;;;0.93;;
33987;SDS011;37428;53.580;-1.666;2024-02-16T17:47:13;1.58;;;0.77;;
33987;SDS011;37428;53.580;-1.666;2024-02-16T17:50:16;1.33;;;1.23;;
33987;SDS011;37428;53.580;-1.666;2024-02-16T17:53:30;2.53;;;1.27;;
33987;SDS011;37428;53.580;-1.666;2024-02-16T17:56:33;1.33;;;1.05;;
33987;SDS011;37428;53.580;-1.666;2024-02-16T17:59:51;1.60;;;1.00;;
33987;SDS011;37428;53.580;-1.666;2024-02-16T18:03:07;3.08;;;1.33;;
33987;SDS011;37428;53.580;-1.666;2024-02-16T18:06:10;2.08;;;1.48;;
33987;SDS011;37428;53.580;-1.666;2024-02-16T18:09:26;5.95;;;1.70;;
33987;SDS011;37428;53.580;-1.666;2024-02-16T18:12:42;2.30;;;1.38;;
33987;SDS011;37428;53.580;-1.666;2024-02-16T18:15:46;2.45;;;2.10;;
33987;SDS011;37428;53.580;-1.666;2024-02-16T18:18:53;2.30;;;1.35;;
33987;SDS011;37428;53.580;-1.666;2024-02-16T18:22:04;3.47;;;1.40;;
33987;SDS011;37428;53.580;-1.666;2024-02-16T18:25:08;2.17;;;1.05;;
33987;SDS011;37428;53.580;-1.666;2024-02-16T18:28:30;2.95;;;1.30;;
33987;SDS011;37428;53.580;-1.666;2024-02-16T18:31:34;2.42;;;1.20;;
33987;SDS011;37428;53.580;-1.666;2024-02-16T18:34:56;1.77;;;1.50;;
33987;SDS011;37428;53.580;-1.666;2024-02-16T18:38:14;3.25;;;2.47;;
33987;SDS011;37428;53.580;-1.666;2024-02-16T18:41:19;1.90;;;1.80;;
33987;SDS011;37428;53.580;-1.666;2024-02-16T18:44:26;2.00;;;1.40;;
33987;SDS011;37428;53.580;-1.666;2024-02-16T18:51:00;1.17;;;0.90;;
33987;SDS011;37428;53.580;-1.666;2024-02-16T18:54:03;1.70;;;1.38;;